Time;durP1;ratioP1;P1;durP2;ratioP2;P2;SDS_P1;SDS_P2;PMS_P1;PMS_P2;Temp;Humidity;BMP_temperature;BMP_pressure;BME280_temperature;BME280_humidity;BME280_pressure;Samples;Min_cycle;Max_cycle;Signal;HPM_P1;HPM_P2
2022/12/29 00:00:05;;;;;;;3.43;1.67;;;;;;;8.90;100.00;99602.50;686401;28;2512;-63
2022/12/29 00:00:33;;;;;;;3.58;1.80;;;;;;;8.85;100.00;99599.13;687878;28;1340;-63
2022/12/29 00:00:53;;;;;;;3.45;1.70;;;;;;;8.83;100.00;99601.78;687611;28;2376;-63
2022/12/29 00:01:14;;;;;;;3.30;1.73;;;;;;;8.85;100.00;99602.59;686666;28;5035;-63
2022/12/29 00:01:35;;;;;;;3.40;1.80;;;;;;;8.87;100.00;99599.97;684833;28;1389;-62
2022/12/29 00:01:56;;;;;;;2.65;1.55;;;;;;;8.84;100.00;99600.88;685562;28;1172;-63
2022/12/29 00:02:17;;;;;;;3.23;1.67;;;;;;;8.81;100.00;99598.31;684624;28;2298;-61
2022/12/29 00:02:37;;;;;;;2.80;1.63;;;;;;;8.81;100.00;99602.66;685990;28;1091;-63
2022/12/29 00:02:57;;;;;;;2.83;1.70;;;;;;;8.76;100.00;99597.50;684582;28;1065;-63
2022/12/29 00:03:18;;;;;;;2.95;1.73;;;;;;;8.78;100.00;99597.50;688315;28;1455;-65
2022/12/29 00:03:38;;;;;;;3.00;1.70;;;;;;;8.85;100.00;99597.38;688317;28;1431;-64
2022/12/29 00:03:59;;;;;;;2.90;1.75;;;;;;;8.86;100.00;99593.91;687560;28;4434;-64
2022/12/29 00:04:19;;;;;;;2.75;1.55;;;;;;;8.84;100.00;99593.03;684062;28;2185;-64
2022/12/29 00:04:39;;;;;;;2.63;1.67;;;;;;;8.85;100.00;99589.56;687069;28;1419;-63
2022/12/29 00:05:00;;;;;;;2.77;1.60;;;;;;;8.89;100.00;99590.38;687884;28;2510;-64
2022/12/29 00:05:20;;;;;;;2.75;1.60;;;;;;;8.84;100.00;99593.03;685199;28;1436;-61
2022/12/29 00:05:41;;;;;;;3.30;1.70;;;;;;;8.82;100.00;99587.00;685787;28;1396;-62
2022/12/29 00:06:02;;;;;;;3.38;1.60;;;;;;;8.78;100.00;99595.75;687503;28;1262;-63
2022/12/29 00:06:23;;;;;;;3.95;1.70;;;;;;;8.81;100.00;99600.06;687692;28;1279;-62
2022/12/29 00:06:44;;;;;;;3.63;1.80;;;;;;;8.79;100.00;99597.47;687104;28;1352;-63
2022/12/29 00:07:05;;;;;;;3.75;1.70;;;;;;;8.78;100.00;99585.34;687377;28;4483;-64
2022/12/29 00:07:26;;;;;;;3.55;1.55;;;;;;;8.80;100.00;99593.13;687999;28;1146;-63
2022/12/29 00:07:46;;;;;;;2.60;1.60;;;;;;;8.83;100.00;99593.94;687530;28;2258;-63
2022/12/29 00:08:06;;;;;;;2.70;1.60;;;;;;;8.79;100.00;99584.47;690069;28;1410;-63
2022/12/29 00:08:39;;;;;;;2.63;1.50;;;;;;;8.83;100.00;99587.84;689642;28;1379;-63
2022/12/29 00:08:59;;;;;;;3.60;1.80;;;;;;;8.83;100.00;99586.13;689954;28;1099;-62
2022/12/29 00:09:20;;;;;;;3.17;1.63;;;;;;;8.80;100.00;99577.50;689465;28;1420;-62
2022/12/29 00:09:40;;;;;;;2.83;1.60;;;;;;;8.78;100.00;99585.34;690594;28;1387;-62
2022/12/29 00:10:01;;;;;;;2.60;1.50;;;;;;;8.75;100.00;99582.78;687562;28;4476;-63
2022/12/29 00:10:21;;;;;;;2.90;1.53;;;;;;;8.73;100.00;99587.13;687178;28;2354;-63
2022/12/29 00:10:41;;;;;;;2.97;1.60;;;;;;;8.71;100.00;99582.81;687231;28;1725;-64
2022/12/29 00:11:02;;;;;;;3.00;1.70;;;;;;;8.77;100.00;99583.59;687131;28;1188;-63
2022/12/29 00:11:24;;;;;;;3.28;1.67;;;;;;;8.74;100.00;99570.63;687760;28;1422;-62
2022/12/29 00:11:45;;;;;;;2.78;1.55;;;;;;;8.74;100.00;99570.63;688658;28;1143;-62
2022/12/29 00:12:06;;;;;;;4.43;1.73;;;;;;;8.78;100.00;99566.25;687851;28;1424;-63
2022/12/29 00:15:36;;;;;;;3.80;1.50;;;;;;;8.80;100.00;99567.06;687781;28;1625;-63
2022/12/29 00:15:43;;;;;;;2.70;1.67;;;;;;;8.94;100.00;99566.84;688825;28;1666;-63
2022/12/29 00:16:06;;;;;;;2.72;1.60;;;;;;;8.85;100.00;99558.28;685691;28;4524;-62
2022/12/29 00:16:28;;;;;;;2.63;1.65;;;;;;;8.86;100.00;99562.63;687736;28;1216;-63
2022/12/29 00:16:49;;;;;;;2.63;1.50;;;;;;;8.83;100.00;99560.06;686272;28;1085;-61
2022/12/29 00:17:09;;;;;;;2.40;1.50;;;;;;;8.81;100.00;99564.44;687034;28;1429;-63
2022/12/29 00:17:29;;;;;;;2.50;1.40;;;;;;;8.78;100.00;99564.47;687767;28;1524;-61
2022/12/29 00:17:50;;;;;;;3.10;1.60;;;;;;;8.75;100.00;99564.53;686251;28;2362;-62
2022/12/29 00:18:10;;;;;;;2.50;1.40;;;;;;;8.77;100.00;99564.50;684686;28;1436;-61
2022/12/29 00:18:31;;;;;;;2.40;1.40;;;;;;;8.75;100.00;99569.75;688033;28;1611;-62
2022/12/29 00:18:51;;;;;;;2.95;1.50;;;;;;;8.73;100.00;99566.28;687767;28;1500;-62
2022/12/29 00:35:09;;;;;;;2.25;1.25;;;;;;;8.97;100.00;99544.22;687461;28;1390;-63
2022/12/29 00:35:35;;;;;;;1.77;1.25;;;;;;;8.92;100.00;99540.81;686653;28;1092;-63
2022/12/29 00:36:11;;;;;;;2.40;1.20;;;;;;;8.90;100.00;99534.75;687805;28;1300;-64
2022/12/29 00:36:36;;;;;;;3.05;1.20;;;;;;;8.92;100.00;99538.22;686631;28;1430;-63
2022/12/29 00:36:57;;;;;;;2.15;1.15;;;;;;;8.90;100.00;99539.97;686992;28;4640;-63
2022/12/29 00:44:04;;;;;;;1.63;1.10;;;;;;;8.93;100.00;99536.44;688161;28;1296;-62
2022/12/29 00:44:16;;;;;;;1.65;1.17;;;;;;;9.12;100.00;99535.25;688917;28;1151;-63
2022/12/29 00:44:38;;;;;;;1.92;1.20;;;;;;;9.13;100.00;99529.16;687949;28;1165;-64
2022/12/29 00:44:58;;;;;;;2.40;1.30;;;;;;;9.08;100.00;99530.13;684473;28;1291;-64
2022/12/29 00:45:18;;;;;;;2.15;1.17;;;;;;;9.09;100.00;99530.09;684983;28;1359;-60
2022/12/29 00:45:41;;;;;;;2.30;1.20;;;;;;;9.14;100.00;99525.69;686351;28;2389;-62
2022/12/29 00:46:02;;;;;;;1.90;1.13;;;;;;;9.18;100.00;99521.28;683599;28;4631;-63
2022/12/29 00:46:24;;;;;;;1.92;1.05;;;;;;;9.15;100.00;99521.31;685210;28;1292;-64
2022/12/29 00:46:45;;;;;;;1.80;1.00;;;;;;;9.09;100.00;99527.50;685171;28;1565;-62
2022/12/29 00:47:05;;;;;;;1.97;1.10;;;;;;;9.10;100.00;99524.00;684058;28;1117;-64
2022/12/29 00:47:26;;;;;;;2.25;1.17;;;;;;;9.08;100.00;99525.75;685191;28;1299;-64
2022/12/29 00:47:46;;;;;;;2.10;1.10;;;;;;;9.08;100.00;99525.75;682567;28;1380;-64
2022/12/29 00:48:07;;;;;;;2.20;1.10;;;;;;;9.07;100.00;99518.84;685327;28;1273;-64
2022/12/29 00:49:48;;;;;;;1.60;1.00;;;;;;;9.18;100.00;99524.75;685295;28;1419;-63
2022/12/29 00:50:10;;;;;;;1.55;1.10;;;;;;;9.12;100.00;99522.22;683326;28;2213;-64
2022/12/29 00:50:31;;;;;;;1.80;0.90;;;;;;;9.22;100.00;99514.25;683784;28;1411;-64
2022/12/29 00:50:55;;;;;;;2.40;1.03;;;;;;;9.20;100.00;99520.34;685967;28;1244;-64
2022/12/29 00:51:16;;;;;;;1.85;1.10;;;;;;;9.25;100.00;99525.50;685166;28;1620;-64
2022/12/29 00:51:37;;;;;;;2.15;1.10;;;;;;;9.24;100.00;99534.19;684936;28;1288;-64
2022/12/29 00:51:59;;;;;;;1.97;1.00;;;;;;;9.25;100.00;99527.22;685268;28;4703;-64
2022/12/29 00:52:19;;;;;;;2.13;1.10;;;;;;;9.32;100.00;99526.25;685336;28;1824;-64
2022/12/29 00:52:40;;;;;;;2.50;1.10;;;;;;;9.25;100.00;99532.44;684412;28;1424;-64
2022/12/29 00:53:00;;;;;;;1.88;0.95;;;;;;;9.31;100.00;99527.13;684798;28;1722;-64
2022/12/29 00:53:21;;;;;;;1.77;0.90;;;;;;;9.30;100.00;99521.03;684869;28;1451;-65
2022/12/29 00:53:41;;;;;;;1.87;1.00;;;;;;;9.30;100.00;99520.19;684859;28;1697;-69
2022/12/29 00:54:02;;;;;;;1.53;0.90;;;;;;;9.26;100.00;99526.34;684585;28;1620;-64
2022/12/29 00:54:22;;;;;;;1.70;0.90;;;;;;;9.25;100.00;99527.22;684371;28;1347;-64
2022/12/29 00:54:44;;;;;;;1.95;1.00;;;;;;;9.18;100.00;99529.97;688190;28;2449;-65
2022/12/29 00:55:05;;;;;;;2.47;1.00;;;;;;;9.15;100.00;99532.63;687184;28;4618;-63
2022/12/29 00:55:25;;;;;;;2.03;1.00;;;;;;;9.18;100.00;99531.72;686959;28;1381;-64
2022/12/29 00:55:46;;;;;;;1.40;0.90;;;;;;;9.18;100.00;99535.16;688177;28;1232;-64
2022/12/29 00:56:06;;;;;;;1.80;0.90;;;;;;;9.20;100.00;99538.59;688101;28;1044;-64
2022/12/29 00:56:26;;;;;;;1.30;1.00;;;;;;;9.24;100.00;99530.75;687383;28;1450;-67
2022/12/29 00:56:51;;;;;;;1.67;1.00;;;;;;;9.28;100.00;99522.81;686471;28;1163;-64
2022/12/29 00:57:12;;;;;;;1.95;1.02;;;;;;;9.29;100.00;99528.88;688157;28;1242;-64
2022/12/29 00:57:32;;;;;;;1.77;1.03;;;;;;;9.29;100.00;99534.09;687373;28;2356;-64
2022/12/29 00:57:53;;;;;;;1.63;0.90;;;;;;;9.37;100.00;99532.22;687251;28;1047;-65
2022/12/29 00:58:13;;;;;;;1.40;0.97;;;;;;;9.40;100.00;99531.31;688392;28;4323;-64
2022/12/29 00:58:33;;;;;;;1.95;1.00;;;;;;;9.37;100.00;99524.41;688262;28;1306;-64
2022/12/29 00:58:54;;;;;;;2.00;0.93;;;;;;;9.33;100.00;99530.56;686558;28;1064;-64
2022/12/29 00:59:15;;;;;;;1.70;1.00;;;;;;;9.29;100.00;99524.56;686273;28;1309;-64
2022/12/29 00:59:36;;;;;;;2.00;1.02;;;;;;;9.23;100.00;99536.84;685369;28;1335;-65
2022/12/29 00:59:56;;;;;;;1.45;0.90;;;;;;;9.28;100.00;99527.19;685722;28;1511;-64
2022/12/29 01:00:16;;;;;;;2.33;1.07;;;;;;;9.32;100.00;99523.66;684172;28;2319;-64
2022/12/29 01:00:37;;;;;;;1.80;1.03;;;;;;;9.37;100.00;99521.78;682022;28;1607;-64
2022/12/29 01:01:05;;;;;;;1.93;1.00;;;;;;;9.36;100.00;99525.31;681985;28;4481;-65
2022/12/29 01:01:26;;;;;;;2.38;1.05;;;;;;;9.34;100.00;99527.06;682836;28;1153;-64
2022/12/29 01:01:47;;;;;;;2.13;1.07;;;;;;;9.41;100.00;99522.59;681841;28;1086;-64
2022/12/29 01:02:09;;;;;;;2.10;1.10;;;;;;;9.38;100.00;99526.97;681206;28;1433;-63
2022/12/29 01:02:29;;;;;;;1.63;1.00;;;;;;;9.28;100.00;99517.59;680882;28;1275;-64
2022/12/29 01:02:50;;;;;;;1.60;1.00;;;;;;;9.29;100.00;99529.78;683785;28;1384;-63
2022/12/29 01:03:10;;;;;;;1.75;1.00;;;;;;;9.36;100.00;99525.31;684077;28;1265;-63
2022/12/29 01:03:32;;;;;;;1.43;0.90;;;;;;;9.36;100.00;99514.88;687818;28;1222;-64
2022/12/29 01:03:52;;;;;;;1.70;1.00;;;;;;;9.30;100.00;99521.03;687697;28;1068;-64
2022/12/29 01:04:14;;;;;;;1.48;0.90;;;;;;;9.27;100.00;99518.50;680906;28;4524;-63
2022/12/29 01:04:34;;;;;;;1.80;0.95;;;;;;;9.22;100.00;99522.06;682119;28;2681;-63
2022/12/29 01:04:55;;;;;;;1.67;1.00;;;;;;;9.17;100.00;99522.16;682557;28;1309;-64
2022/12/29 01:05:15;;;;;;;1.60;0.90;;;;;;;9.14;100.00;99525.69;682574;28;1358;-64
2022/12/29 01:05:36;;;;;;;1.95;1.05;;;;;;;9.17;100.00;99524.78;683036;28;1499;-64
2022/12/29 01:06:00;;;;;;;2.25;1.00;;;;;;;9.24;100.00;99509.88;685457;28;1641;-66
2022/12/29 01:06:21;;;;;;;2.00;0.90;;;;;;;9.23;100.00;99516.81;688201;28;1289;-65
2022/12/29 01:06:41;;;;;;;1.83;1.00;;;;;;;9.22;100.00;99519.47;687641;28;1335;-64
2022/12/29 01:07:02;;;;;;;2.00;1.00;;;;;;;9.23;100.00;99514.22;686228;28;5061;-63
2022/12/29 01:07:22;;;;;;;2.22;1.00;;;;;;;9.24;100.00;99521.16;688696;28;1407;-64
2022/12/29 01:07:43;;;;;;;1.90;1.10;;;;;;;9.28;100.00;99508.94;688393;28;2387;-63
2022/12/29 01:08:03;;;;;;;2.00;1.00;;;;;;;9.27;100.00;99517.66;688594;28;1118;-65
2022/12/29 01:08:24;;;;;;;2.33;1.02;;;;;;;9.34;100.00;99522.69;687999;28;1480;-64
2022/12/29 01:08:45;;;;;;;2.42;1.00;;;;;;;9.35;100.00;99521.81;688905;28;1507;-62
2022/12/29 01:10:24;;;;;;;1.05;0.73;;;;;;;9.53;100.00;99523.22;685124;28;4979;-64
2022/12/29 01:10:46;;;;;;;1.55;1.00;;;;;;;9.48;100.00;99525.06;685504;28;1383;-64
2022/12/29 01:11:11;;;;;;;1.30;0.90;;;;;;;9.42;100.00;99519.97;685414;28;1229;-64
2022/12/29 01:11:32;;;;;;;1.70;0.80;;;;;;;9.44;100.00;99531.25;686487;28;1265;-65
2022/12/29 01:11:54;;;;;;;1.60;0.80;;;;;;;9.49;100.00;99513.75;685342;28;1371;-64
2022/12/29 01:12:15;;;;;;;1.92;0.90;;;;;;;9.48;100.00;99521.59;687392;28;1287;-64
2022/12/29 01:12:41;;;;;;;1.95;1.10;;;;;;;9.49;100.00;99521.56;688395;28;1530;-64
2022/12/29 01:13:04;;;;;;;2.10;0.95;;;;;;;9.45;100.00;99519.91;687139;28;4543;-64
2022/12/29 01:13:24;;;;;;;1.20;0.80;;;;;;;9.46;100.00;99526.84;688613;28;1914;-63
2022/12/29 01:13:44;;;;;;;2.10;0.90;;;;;;;9.43;100.00;99524.31;689200;28;1789;-64
2022/12/29 01:14:08;;;;;;;1.95;0.90;;;;;;;9.48;100.00;99530.28;687106;28;1705;-64
2022/12/29 01:14:28;;;;;;;1.67;0.93;;;;;;;9.41;100.00;99528.66;687226;28;1350;-63
2022/12/29 01:14:49;;;;;;;2.08;1.00;;;;;;;9.37;100.00;99529.63;682571;28;2192;-64
2022/12/29 01:15:11;;;;;;;1.83;0.97;;;;;;;9.31;100.00;99532.34;683074;28;1282;-63
2022/12/29 01:15:31;;;;;;;1.48;0.90;;;;;;;9.36;100.00;99533.13;683197;28;1109;-64
2022/12/29 01:15:53;;;;;;;2.07;0.97;;;;;;;9.41;100.00;99539.09;682733;28;1260;-64
2022/12/29 01:16:13;;;;;;;1.70;0.90;;;;;;;9.44;100.00;99532.97;682356;28;4410;-64
2022/12/29 01:16:36;;;;;;;1.45;0.90;;;;;;;9.40;100.00;99542.63;684066;28;1308;-63
2022/12/29 01:16:56;;;;;;;2.70;0.95;;;;;;;9.40;100.00;99539.13;686402;28;1439;-64
2022/12/29 01:17:17;;;;;;;2.40;1.07;;;;;;;9.39;100.00;99540.91;685205;28;1809;-64
2022/12/29 01:17:37;;;;;;;2.80;0.95;;;;;;;9.34;100.00;99537.50;685401;28;2559;-65
2022/12/29 01:17:57;;;;;;;1.30;0.90;;;;;;;9.35;100.00;99534.88;686726;28;1278;-64
2022/12/29 01:18:18;;;;;;;2.50;1.00;;;;;;;9.34;100.00;99542.72;683636;28;1224;-64
2022/12/29 01:18:39;;;;;;;1.90;0.90;;;;;;;9.30;100.00;99541.91;684036;28;1466;-62
2022/12/29 01:19:00;;;;;;;1.50;0.93;;;;;;;9.30;100.00;99541.06;681311;28;4641;-64
2022/12/29 01:19:22;;;;;;;2.13;0.98;;;;;;;9.40;100.00;99536.53;682176;29;1315;-65
2022/12/29 01:19:43;;;;;;;1.48;0.90;;;;;;;9.44;100.00;99538.19;682025;29;1628;-63
2022/12/29 01:20:04;;;;;;;1.40;0.90;;;;;;;9.48;100.00;99537.25;682082;29;1450;-64
2022/12/29 01:20:25;;;;;;;1.70;0.90;;;;;;;9.47;100.00;99528.59;682276;28;2396;-65
2022/12/29 01:20:45;;;;;;;1.80;0.90;;;;;;;9.40;100.00;99532.19;683622;28;1590;-64
2022/12/29 01:21:06;;;;;;;1.83;0.93;;;;;;;9.36;100.00;99530.53;682419;28;1606;-64
2022/12/29 01:21:26;;;;;;;1.55;0.90;;;;;;;9.35;100.00;99526.19;683721;28;1592;-65
2022/12/29 01:21:47;;;;;;;1.67;0.93;;;;;;;9.34;100.00;99527.06;681489;29;1488;-64
2022/12/29 01:22:07;;;;;;;1.27;0.90;;;;;;;9.28;100.00;99529.81;681841;28;4588;-64
2022/12/29 01:22:28;;;;;;;1.47;0.80;;;;;;;9.28;100.00;99517.59;684469;28;1447;-63
2022/12/29 01:22:49;;;;;;;1.52;0.90;;;;;;;9.27;100.00;99520.25;683430;28;1328;-63
2022/12/29 01:23:13;;;;;;;1.83;1.00;;;;;;;9.24;100.00;99526.38;682960;28;1445;-64
2022/12/29 01:23:33;;;;;;;1.80;1.00;;;;;;;9.30;100.00;99530.63;681291;28;1109;-64
2022/12/29 01:23:54;;;;;;;1.73;0.90;;;;;;;9.32;100.00;99528.88;683026;28;1254;-64
2022/12/29 01:24:16;;;;;;;1.75;0.98;;;;;;;9.35;100.00;99528.81;683314;28;1473;-63
2022/12/29 01:24:36;;;;;;;1.55;0.88;;;;;;;9.37;100.00;99533.09;689027;28;1404;-64
2022/12/29 01:24:57;;;;;;;1.60;1.00;;;;;;;9.37;100.00;99530.50;685895;28;4437;-64
2022/12/29 01:25:17;;;;;;;2.65;1.05;;;;;;;9.42;100.00;99535.63;687655;28;1398;-65
2022/12/29 01:25:37;;;;;;;2.63;1.03;;;;;;;9.44;100.00;99541.69;687665;28;1451;-64
2022/12/29 01:26:09;;;;;;;1.55;1.00;;;;;;;9.45;100.00;99537.31;687962;28;1697;-64
2022/12/29 01:26:29;;;;;;;1.23;0.90;;;;;;;9.48;100.00;99540.72;687525;28;1258;-65
2022/12/29 01:26:50;;;;;;;2.20;0.85;;;;;;;9.47;100.00;99536.41;688190;28;1370;-64
2022/12/29 01:27:10;;;;;;;1.67;0.90;;;;;;;9.40;100.00;99533.91;685570;28;1371;-64
2022/12/29 01:27:31;;;;;;;2.30;1.07;;;;;;;9.36;100.00;99540.97;686391;28;1297;-64
2022/12/29 01:27:51;;;;;;;1.80;1.00;;;;;;;9.34;100.00;99546.19;686574;28;1147;-64
2022/12/29 01:28:12;;;;;;;1.20;0.80;;;;;;;9.40;100.00;99540.03;684837;28;4323;-64
2022/12/29 01:28:32;;;;;;;1.30;0.87;;;;;;;9.38;100.00;99533.97;684137;28;2514;-64
2022/12/29 01:28:53;;;;;;;1.70;0.90;;;;;;;9.34;100.00;99538.34;684161;28;1350;-64
2022/12/29 01:29:14;;;;;;;1.77;0.98;;;;;;;9.33;100.00;99534.03;685883;28;1265;-64
2022/12/29 01:29:34;;;;;;;1.92;1.00;;;;;;;9.29;100.00;99529.78;685962;28;1321;-64
2022/12/29 01:29:54;;;;;;;1.90;1.10;;;;;;;9.29;100.00;99539.31;686280;28;1475;-63
2022/12/29 01:30:15;;;;;;;2.23;1.47;;;;;;;9.32;100.00;99541.91;686190;28;1269;-64
2022/12/29 01:30:35;;;;;;;2.53;1.35;;;;;;;9.32;100.00;99523.66;686340;28;1503;-60
2022/12/29 01:31:00;;;;;;;2.60;1.10;;;;;;;9.30;100.00;99538.44;688407;28;1239;-63
2022/12/29 01:31:20;;;;;;;1.85;1.00;;;;;;;9.26;100.00;99540.22;685023;28;4953;-63
2022/12/29 01:31:41;;;;;;;2.23;1.00;;;;;;;9.30;100.00;99535.84;687194;28;1730;-64
2022/12/29 01:32:03;;;;;;;3.17;1.08;;;;;;;9.33;100.00;99533.16;687935;28;1131;-63
2022/12/29 01:32:23;;;;;;;2.92;1.00;;;;;;;9.35;100.00;99531.41;688878;28;1263;-63
2022/12/29 01:32:43;;;;;;;3.13;1.00;;;;;;;9.33;100.00;99525.34;686500;28;1731;-63
2022/12/29 01:33:04;;;;;;;2.25;1.00;;;;;;;9.29;100.00;99519.34;686196;28;1625;-64
2022/12/29 01:33:24;;;;;;;1.97;1.00;;;;;;;9.31;100.00;99527.13;685899;28;1912;-63
2022/12/29 01:33:45;;;;;;;1.85;0.90;;;;;;;9.33;100.00;99523.63;684768;28;1646;-64
2022/12/29 01:34:06;;;;;;;1.85;0.90;;;;;;;9.37;100.00;99521.78;682129;28;4348;-64
2022/12/29 01:34:26;;;;;;;2.25;0.98;;;;;;;9.40;100.00;99528.72;683125;28;1436;-64
2022/12/29 01:34:47;;;;;;;2.00;0.93;;;;;;;9.40;100.00;99520.88;683021;28;1122;-64
2022/12/29 01:35:07;;;;;;;2.80;1.10;;;;;;;9.35;100.00;99515.75;683596;28;2365;-63
2022/12/29 01:35:29;;;;;;;1.90;1.00;;;;;;;9.37;100.00;99520.06;684305;28;1835;-64
2022/12/29 01:35:51;;;;;;;1.90;0.90;;;;;;;9.36;100.00;99514.88;682948;28;1500;-63
2022/12/29 01:36:14;;;;;;;1.60;0.80;;;;;;;9.30;100.00;99513.22;684979;28;1117;-64
2022/12/29 01:36:35;;;;;;;1.30;0.90;;;;;;;9.31;100.00;99517.56;686240;28;1422;-65
2022/12/29 01:36:56;;;;;;;1.58;0.90;;;;;;;9.28;100.00;99508.94;682843;28;1307;-64
2022/12/29 01:37:16;;;;;;;2.17;0.90;;;;;;;9.25;100.00;99509.84;681853;28;4641;-63
2022/12/29 01:37:37;;;;;;;2.13;0.80;;;;;;;9.27;100.00;99507.22;679593;29;2652;-64
2022/12/29 01:37:57;;;;;;;2.10;0.90;;;;;;;9.33;100.00;99505.34;678173;29;1328;-64
2022/12/29 01:38:18;;;;;;;1.10;0.70;;;;;;;9.29;100.00;99502.81;678781;29;1217;-60
2022/12/29 01:38:39;;;;;;;1.23;0.80;;;;;;;9.28;100.00;99506.34;682553;29;1596;-62
2022/12/29 01:38:59;;;;;;;1.17;0.80;;;;;;;9.30;100.00;99514.97;681701;29;5346;-62
2022/12/29 01:39:20;;;;;;;1.65;0.80;;;;;;;9.28;100.00;99508.94;682275;28;1445;-64
2022/12/29 01:39:41;;;;;;;1.48;0.80;;;;;;;9.30;100.00;99521.03;681777;28;1714;-62
2022/12/29 01:40:02;;;;;;;1.75;0.85;;;;;;;9.31;100.00;99520.16;681165;28;4628;-64
2022/12/29 01:40:22;;;;;;;1.50;0.83;;;;;;;9.29;100.00;99526.28;681703;28;1237;-63
2022/12/29 01:40:45;;;;;;;1.10;0.70;;;;;;;9.25;100.00;99528.09;686432;28;1614;-62
2022/12/29 01:41:06;;;;;;;2.40;0.90;;;;;;;9.35;100.00;99528.81;686906;28;2616;-63
2022/12/29 01:41:27;;;;;;;1.50;0.80;;;;;;;9.32;100.00;99529.72;686952;28;1332;-64
2022/12/29 01:41:47;;;;;;;0.98;0.70;;;;;;;9.29;100.00;99523.69;686117;28;1364;-61
2022/12/29 01:42:19;;;;;;;1.10;0.80;;;;;;;9.29;100.00;99539.31;682883;28;1216;-63
2022/12/29 01:42:39;;;;;;;1.80;0.80;;;;;;;9.27;100.00;99535.91;683016;28;1516;-63
2022/12/29 01:43:00;;;;;;;1.40;0.80;;;;;;;9.24;100.00;99530.75;679823;28;4435;-64
2022/12/29 01:43:20;;;;;;;1.25;0.80;;;;;;;9.24;100.00;99523.78;682319;28;1465;-63
2022/12/29 01:43:42;;;;;;;1.50;0.90;;;;;;;9.26;100.00;99536.78;680957;29;1276;-63
2022/12/29 01:44:02;;;;;;;2.28;1.00;;;;;;;9.25;100.00;99532.44;678738;29;1986;-64
2022/12/29 01:44:44;;;;;;;2.30;1.00;;;;;;;9.40;100.00;99532.19;680017;28;1467;-63
2022/12/29 01:45:16;;;;;;;1.67;0.85;;;;;;;9.52;100.00;99526.72;684136;28;1260;-64
2022/12/29 01:45:38;;;;;;;1.50;0.82;;;;;;;9.49;100.00;99521.56;687919;28;1443;-64
2022/12/29 01:45:58;;;;;;;1.37;0.80;;;;;;;9.48;100.00;99530.28;686585;28;4477;-62
2022/12/29 01:46:36;;;;;;;2.40;0.90;;;;;;;9.49;100.00;99526.78;687022;28;1278;-64
2022/12/29 01:46:57;;;;;;;2.78;1.40;;;;;;;9.57;100.00;99517.94;686663;28;1239;-63
2022/12/29 01:47:44;;;;;;;1.97;0.77;;;;;;;9.56;100.00;99526.69;689014;28;1510;-62
2022/12/29 01:48:08;;;;;;;1.20;0.80;;;;;;;9.64;100.00;99522.19;684634;28;1984;-63
2022/12/29 01:48:28;;;;;;;1.38;0.88;;;;;;;9.63;100.00;99515.25;684961;28;1378;-63
2022/12/29 01:48:52;;;;;;;1.67;0.97;;;;;;;9.71;100.00;99521.19;686396;28;1175;-66
2022/12/29 01:49:19;;;;;;;1.40;0.90;;;;;;;9.75;100.00;99520.22;682867;28;4719;-65
2022/12/29 01:49:39;;;;;;;1.20;0.70;;;;;;;9.73;100.00;99518.53;684769;28;1339;-63
2022/12/29 01:50:09;;;;;;;1.98;0.80;;;;;;;9.65;100.00;99522.16;685985;28;1110;-64
2022/12/29 01:50:33;;;;;;;1.80;0.85;;;;;;;9.55;100.00;99520.59;685463;28;1489;-63
2022/12/29 01:50:54;;;;;;;1.08;0.70;;;;;;;9.54;100.00;99517.13;684763;28;1208;-64
2022/12/29 01:51:16;;;;;;;1.20;0.75;;;;;;;9.54;100.00;99514.53;687505;28;2238;-64
2022/12/29 01:51:44;;;;;;;1.50;1.00;;;;;;;9.60;100.00;99517.91;685943;28;1349;-63
2022/12/29 01:52:07;;;;;;;1.60;0.82;;;;;;;9.67;100.00;99519.50;683877;28;4335;-64
2022/12/29 01:52:31;;;;;;;1.35;0.80;;;;;;;9.73;100.00;99510.69;687822;28;1437;-65
2022/12/29 01:53:11;;;;;;;1.55;0.80;;;;;;;9.72;100.00;99517.69;687654;28;1180;-64
2022/12/29 01:53:34;;;;;;;1.45;0.80;;;;;;;9.73;100.00;99516.78;690368;28;1918;-63
2022/12/29 01:53:57;;;;;;;1.30;0.75;;;;;;;9.76;100.00;99513.25;691753;28;1449;-64
2022/12/29 01:54:57;;;;;;;1.90;0.80;;;;;;;9.78;100.00;99512.31;686615;28;1548;-64
2022/12/29 01:55:18;;;;;;;2.05;0.70;;;;;;;9.81;100.00;99512.25;676782;29;4767;-64
2022/12/29 01:55:46;;;;;;;1.63;0.70;;;;;;;9.81;100.00;99512.25;678242;29;1463;-64
2022/12/29 01:56:13;;;;;;;1.15;0.70;;;;;;;9.82;100.00;99516.59;676868;29;1372;-64
2022/12/29 01:56:33;;;;;;;1.88;0.80;;;;;;;9.81;100.00;99511.41;677098;29;1475;-64
2022/12/29 01:56:57;;;;;;;1.98;0.80;;;;;;;9.82;100.00;99513.97;674873;29;1276;-64
2022/12/29 01:57:23;;;;;;;1.65;0.90;;;;;;;9.75;100.00;99511.50;674858;29;2408;-65
2022/12/29 01:57:49;;;;;;;1.60;0.70;;;;;;;9.74;100.00;99510.66;674560;29;2530;-63
2022/12/29 01:58:13;;;;;;;2.17;0.80;;;;;;;9.67;100.00;99514.28;673667;29;4501;-64
2022/12/29 01:58:37;;;;;;;1.77;0.90;;;;;;;9.69;100.00;99508.16;674803;29;1456;-64
2022/12/29 01:59:06;;;;;;;1.30;0.80;;;;;;;9.63;100.00;99508.25;675691;29;1495;-64
2022/12/29 01:59:34;;;;;;;1.33;0.90;;;;;;;9.59;100.00;99505.75;674360;29;1378;-64
2022/12/29 02:00:01;;;;;;;1.40;0.80;;;;;;;9.60;100.00;99497.88;677210;29;1313;-64
2022/12/29 02:00:21;;;;;;;1.02;0.80;;;;;;;9.58;100.00;99504.03;677448;29;1533;-64
2022/12/29 02:00:42;;;;;;;1.10;0.80;;;;;;;9.57;100.00;99504.91;676450;29;1507;-63
2022/12/29 02:01:02;;;;;;;1.17;0.70;;;;;;;9.54;100.00;99509.31;674289;29;4395;-63
2022/12/29 02:01:23;;;;;;;1.60;0.70;;;;;;;9.60;100.00;99507.47;685496;28;1395;-64
2022/12/29 02:01:44;;;;;;;1.02;0.77;;;;;;;9.54;100.00;99503.25;688096;28;1417;-64
2022/12/29 02:02:05;;;;;;;2.00;0.80;;;;;;;9.50;100.00;99502.44;687982;28;1234;-64
2022/12/29 02:02:27;;;;;;;2.25;0.75;;;;;;;9.45;100.00;99499.03;687588;28;1393;-64
2022/12/29 02:02:51;;;;;;;2.45;0.88;;;;;;;9.44;100.00;99499.06;684243;28;1999;-63
2022/12/29 02:03:12;;;;;;;2.75;0.80;;;;;;;9.52;100.00;99505.84;685783;28;1424;-64
2022/12/29 02:03:34;;;;;;;0.83;0.70;;;;;;;9.48;100.00;99493.75;685445;28;1495;-65
2022/12/29 02:03:55;;;;;;;1.23;0.63;;;;;;;9.49;100.00;99498.09;683414;28;1424;-64
2022/12/29 02:04:15;;;;;;;1.20;0.70;;;;;;;9.56;100.00;99493.63;683652;28;5242;-64
2022/12/29 02:04:44;;;;;;;0.93;0.70;;;;;;;9.71;100.00;99493.31;680720;28;1360;-65
2022/12/29 02:05:13;;;;;;;0.85;0.60;;;;;;;9.68;100.00;99490.78;680541;28;2444;-65
2022/12/29 02:05:42;;;;;;;1.90;0.63;;;;;;;9.68;100.00;99488.16;679704;29;1229;-65
2022/12/29 02:06:18;;;;;;;1.20;0.73;;;;;;;9.62;100.00;99496.13;679896;29;1381;-64
2022/12/29 02:06:51;;;;;;;0.93;0.70;;;;;;;9.57;100.00;99486.63;685235;28;1231;-64
2022/12/29 02:07:18;;;;;;;1.05;0.70;;;;;;;9.68;100.00;99497.75;686969;28;4480;-65
2022/12/29 02:07:39;;;;;;;1.15;0.70;;;;;;;9.72;100.00;99496.81;688512;28;1176;-64
2022/12/29 02:08:01;;;;;;;0.75;0.60;;;;;;;9.82;100.00;99498.31;681828;28;2736;-67
2022/12/29 02:08:24;;;;;;;0.95;0.65;;;;;;;9.80;100.00;99500.13;683409;28;1168;-64
2022/12/29 02:08:47;;;;;;;1.23;0.68;;;;;;;9.84;100.00;99495.69;683415;28;1113;-64
2022/12/29 02:09:07;;;;;;;1.77;0.70;;;;;;;9.85;100.00;99498.25;683941;28;1181;-65
2022/12/29 02:09:28;;;;;;;2.10;0.70;;;;;;;9.84;100.00;99500.91;681467;28;1190;-64
2022/12/29 02:09:50;;;;;;;1.60;0.70;;;;;;;9.80;100.00;99504.47;683735;28;1333;-65
2022/12/29 02:10:11;;;;;;;1.20;0.60;;;;;;;9.74;100.00;99495.00;684249;28;4759;-65
2022/12/29 02:10:34;;;;;;;1.20;0.70;;;;;;;9.75;100.00;99491.50;684438;28;1136;-64
2022/12/29 02:10:56;;;;;;;1.02;0.60;;;;;;;9.78;100.00;99496.66;682590;28;1450;-65
2022/12/29 02:11:17;;;;;;;0.95;0.70;;;;;;;9.81;100.00;99493.97;682113;28;2553;-64
2022/12/29 02:11:38;;;;;;;0.77;0.70;;;;;;;9.87;100.00;99490.38;683560;28;1291;-64
2022/12/29 02:11:59;;;;;;;0.90;0.60;;;;;;;9.91;100.00;99485.97;684848;28;1389;-64
2022/12/29 02:12:22;;;;;;;1.00;0.60;;;;;;;9.92;100.00;99492.94;688086;28;1242;-65
2022/12/29 02:12:43;;;;;;;0.88;0.60;;;;;;;9.92;100.00;99487.69;683109;28;3950;-64
2022/12/29 02:13:03;;;;;;;0.90;0.63;;;;;;;9.93;100.00;99489.41;682215;28;4577;-65
2022/12/29 02:13:30;;;;;;;1.17;0.65;;;;;;;9.97;100.00;99483.22;678812;29;1911;-65
2022/12/29 02:13:50;;;;;;;1.35;0.70;;;;;;;10.02;100.00;99484.00;679662;29;1225;-61
2022/12/29 02:14:12;;;;;;;1.60;0.70;;;;;;;9.94;100.00;99481.56;680116;29;1476;-64
2022/12/29 02:14:33;;;;;;;1.23;0.60;;;;;;;9.84;100.00;99480.91;678971;28;1386;-64
2022/12/29 02:14:57;;;;;;;1.42;0.73;;;;;;;9.91;100.00;99491.19;682931;28;2286;-65
2022/12/29 02:15:22;;;;;;;1.27;0.70;;;;;;;9.82;100.00;99481.81;685601;28;1491;-64